Time;durP1;ratioP1;P1;durP2;ratioP2;P2;SDS_P1;SDS_P2;PMS_P1;PMS_P2;Temp;Humidity;BMP_temperature;BMP_pressure;BME280_temperature;BME280_humidity;BME280_pressure;Samples;Min_cycle;Max_cycle;Signal;HPM_P1;HPM_P2
2021/11/05 00:00:56;;;;;;;;;;;20.50;44.70;;;;;;474216;251;1051;-47
2021/11/05 00:02:57;;;;;;;;;;;20.50;44.60;;;;;;474516;251;1373;-47
2021/11/05 00:04:59;;;;;;;;;;;20.60;44.60;;;;;;474343;251;1350;-47
2021/11/05 00:07:00;;;;;;;;;;;20.50;44.60;;;;;;474467;251;1073;-47
2021/11/05 00:09:01;;;;;;;;;;;20.50;44.60;;;;;;474231;251;1373;-47
2021/11/05 00:11:03;;;;;;;;;;;20.50;44.80;;;;;;474530;251;1170;-47
2021/11/05 00:13:04;;;;;;;;;;;20.50;44.90;;;;;;474580;251;2142;-47
2021/11/05 00:15:05;;;;;;;;;;;20.50;44.80;;;;;;474562;251;1141;-47
2021/11/05 00:17:07;;;;;;;;;;;20.50;44.90;;;;;;474100;251;1202;-46
2021/11/05 00:19:08;;;;;;;;;;;20.50;44.90;;;;;;474620;251;1329;-47
2021/11/05 00:21:09;;;;;;;;;;;20.50;44.90;;;;;;474140;251;1552;-47
2021/11/05 00:23:11;;;;;;;;;;;20.50;44.80;;;;;;474273;251;1033;-47
2021/11/05 00:25:12;;;;;;;;;;;20.40;44.80;;;;;;474486;251;1055;-47
2021/11/05 00:27:13;;;;;;;;;;;20.50;44.90;;;;;;474597;251;1232;-47
2021/11/05 00:29:15;;;;;;;;;;;20.40;44.90;;;;;;474618;251;1088;-47
2021/11/05 00:31:16;;;;;;;;;;;20.50;45.00;;;;;;474545;251;1262;-48
2021/11/05 00:33:17;;;;;;;;;;;20.40;45.00;;;;;;474614;251;2121;-47
2021/11/05 00:35:19;;;;;;;;;;;20.40;45.00;;;;;;474199;251;1306;-47
2021/11/05 00:37:20;;;;;;;;;;;20.30;45.00;;;;;;474461;251;1125;-47
2021/11/05 00:39:21;;;;;;;;;;;20.40;45.10;;;;;;474401;251;1317;-48
2021/11/05 00:41:23;;;;;;;;;;;20.40;45.10;;;;;;474238;251;1157;-47
2021/11/05 00:43:24;;;;;;;;;;;20.40;45.10;;;;;;474272;251;1120;-47
2021/11/05 00:45:25;;;;;;;;;;;20.40;45.10;;;;;;474707;251;1042;-48
2021/11/05 00:47:27;;;;;;;;;;;20.40;45.10;;;;;;474347;251;1170;-47
2021/11/05 00:49:28;;;;;;;;;;;20.30;45.20;;;;;;474721;251;948;-47
2021/11/05 00:51:29;;;;;;;;;;;20.40;45.10;;;;;;474239;246;1345;-47
2021/11/05 00:53:31;;;;;;;;;;;20.30;45.10;;;;;;474294;251;2181;-47
2021/11/05 00:55:32;;;;;;;;;;;20.30;45.10;;;;;;474621;251;1041;-47
2021/11/05 00:57:33;;;;;;;;;;;20.40;45.10;;;;;;474274;251;1197;-47
2021/11/05 00:59:35;;;;;;;;;;;20.40;45.20;;;;;;474280;251;1340;-47
2021/11/05 01:01:36;;;;;;;;;;;20.40;45.10;;;;;;474363;251;1240;-47
2021/11/05 01:03:37;;;;;;;;;;;20.40;45.00;;;;;;474285;251;1082;-47
2021/11/05 01:05:39;;;;;;;;;;;20.40;45.00;;;;;;474484;251;1172;-47
2021/11/05 01:07:40;;;;;;;;;;;20.40;45.00;;;;;;474169;251;1243;-47
2021/11/05 01:09:41;;;;;;;;;;;20.40;44.90;;;;;;474213;251;1092;-47
2021/11/05 01:11:43;;;;;;;;;;;20.50;44.90;;;;;;474208;244;1332;-47
2021/11/05 01:13:44;;;;;;;;;;;20.50;44.80;;;;;;474636;251;2138;-47
2021/11/05 01:15:45;;;;;;;;;;;20.50;44.90;;;;;;474236;251;1115;-47
2021/11/05 01:17:47;;;;;;;;;;;20.50;44.80;;;;;;474188;251;1092;-48
2021/11/05 01:19:48;;;;;;;;;;;20.50;44.90;;;;;;474553;251;952;-47
2021/11/05 01:21:49;;;;;;;;;;;20.50;44.80;;;;;;474282;251;1286;-47
2021/11/05 01:23:51;;;;;;;;;;;20.50;44.80;;;;;;474275;251;1065;-47
2021/11/05 01:25:52;;;;;;;;;;;20.50;44.70;;;;;;474393;251;1414;-47
2021/11/05 01:27:53;;;;;;;;;;;20.50;44.70;;;;;;474490;251;1148;-47
2021/11/05 01:29:58;;;;;;;;;;;20.50;44.80;;;;;;474610;251;1071;-47
2021/11/05 01:31:56;;;;;;;;;;;20.50;44.80;;;;;;474328;251;2202;-47
2021/11/05 01:33:57;;;;;;;;;;;20.50;44.70;;;;;;474274;251;2130;-47
2021/11/05 01:35:58;;;;;;;;;;;20.60;44.70;;;;;;474211;251;1390;-47
2021/11/05 01:38:00;;;;;;;;;;;20.50;44.60;;;;;;474432;251;1007;-47
2021/11/05 01:40:01;;;;;;;;;;;20.50;44.70;;;;;;474491;251;1071;-47
2021/11/05 01:42:02;;;;;;;;;;;20.50;44.70;;;;;;474606;251;1245;-47
2021/11/05 01:44:04;;;;;;;;;;;20.50;44.70;;;;;;474205;251;1082;-48
2021/11/05 01:46:08;;;;;;;;;;;20.50;44.70;;;;;;474553;251;1462;-47
2021/11/05 01:48:08;;;;;;;;;;;20.50;44.80;;;;;;474520;251;2099;-47
2021/11/05 01:50:09;;;;;;;;;;;20.50;44.70;;;;;;474696;251;1072;-47
2021/11/05 01:52:10;;;;;;;;;;;20.50;44.80;;;;;;474235;251;1261;-47
2021/11/05 01:54:12;;;;;;;;;;;20.40;44.90;;;;;;474709;251;2145;-47
2021/11/05 01:56:13;;;;;;;;;;;20.40;44.90;;;;;;474193;251;1366;-47
2021/11/05 01:58:14;;;;;;;;;;;20.40;44.80;;;;;;474671;251;984;-47
2021/11/05 02:00:16;;;;;;;;;;;20.40;44.90;;;;;;474681;251;1132;-47
2021/11/05 02:02:17;;;;;;;;;;;20.40;45.00;;;;;;474354;251;1594;-47
2021/11/05 02:04:18;;;;;;;;;;;20.40;44.90;;;;;;474264;251;1068;-47
2021/11/05 02:06:19;;;;;;;;;;;20.40;44.90;;;;;;474530;251;1278;-47
2021/11/05 02:08:21;;;;;;;;;;;20.40;44.90;;;;;;474412;251;1114;-47
2021/11/05 02:10:22;;;;;;;;;;;20.40;44.80;;;;;;474296;251;1063;-47
2021/11/05 02:12:24;;;;;;;;;;;20.40;45.00;;;;;;474525;251;1193;-47
2021/11/05 02:14:25;;;;;;;;;;;20.40;45.00;;;;;;474240;251;2189;-47
2021/11/05 02:16:26;;;;;;;;;;;20.40;45.10;;;;;;474476;246;1244;-47
2021/11/05 02:18:28;;;;;;;;;;;20.40;45.10;;;;;;474189;251;1087;-47
2021/11/05 02:20:29;;;;;;;;;;;20.30;45.10;;;;;;474223;251;1079;-47
2021/11/05 02:22:30;;;;;;;;;;;20.30;45.20;;;;;;474150;251;1203;-47
2021/11/05 02:24:32;;;;;;;;;;;20.30;45.20;;;;;;474667;251;1064;-47
2021/11/05 02:26:34;;;;;;;;;;;20.30;45.20;;;;;;474603;244;1418;-47
2021/11/05 02:28:34;;;;;;;;;;;20.30;45.20;;;;;;474637;251;2290;-47
2021/11/05 02:30:36;;;;;;;;;;;20.30;45.20;;;;;;474330;251;1054;-47
2021/11/05 02:32:37;;;;;;;;;;;20.30;45.20;;;;;;474175;251;1218;-47
2021/11/05 02:34:38;;;;;;;;;;;20.30;45.10;;;;;;474712;251;2151;-48
2021/11/05 02:36:40;;;;;;;;;;;20.40;45.10;;;;;;474470;244;1387;-47
2021/11/05 02:38:41;;;;;;;;;;;20.40;45.00;;;;;;474438;251;1047;-47
2021/11/05 02:40:42;;;;;;;;;;;20.30;45.00;;;;;;474661;251;1144;-48
2021/11/05 02:42:44;;;;;;;;;;;20.40;45.00;;;;;;474645;251;1645;-48
2021/11/05 02:44:45;;;;;;;;;;;20.40;44.90;;;;;;474545;251;1078;-47
2021/11/05 02:46:46;;;;;;;;;;;20.40;44.80;;;;;;474485;251;1321;-47
2021/11/05 02:48:47;;;;;;;;;;;20.40;44.80;;;;;;474285;251;975;-47
2021/11/05 02:50:49;;;;;;;;;;;20.40;44.80;;;;;;474400;251;1379;-47
2021/11/05 02:52:50;;;;;;;;;;;20.50;44.90;;;;;;474316;251;1228;-47
2021/11/05 02:54:51;;;;;;;;;;;20.40;44.70;;;;;;474271;251;2122;-47
2021/11/05 02:56:53;;;;;;;;;;;20.40;44.80;;;;;;474509;251;1193;-47
2021/11/05 02:58:54;;;;;;;;;;;20.50;44.80;;;;;;474386;251;1108;-47
2021/11/05 03:00:56;;;;;;;;;;;20.50;44.70;;;;;;474499;251;1322;-47
2021/11/05 03:02:57;;;;;;;;;;;20.60;44.70;;;;;;474184;251;2149;-47
2021/11/05 03:04:58;;;;;;;;;;;20.50;44.60;;;;;;474686;251;1099;-47
2021/11/05 03:07:00;;;;;;;;;;;20.50;44.70;;;;;;474408;251;1358;-48
2021/11/05 03:09:01;;;;;;;;;;;20.50;44.60;;;;;;474196;251;1110;-47
2021/11/05 03:11:03;;;;;;;;;;;20.50;44.60;;;;;;474632;251;1053;-47
2021/11/05 03:13:04;;;;;;;;;;;20.50;44.60;;;;;;474617;251;2137;-47
2021/11/05 03:15:05;;;;;;;;;;;20.60;44.60;;;;;;474269;251;998;-47
2021/11/05 03:17:07;;;;;;;;;;;20.50;44.50;;;;;;474217;251;1023;-47
2021/11/05 03:19:08;;;;;;;;;;;20.50;44.50;;;;;;474689;251;1103;-47
2021/11/05 03:21:09;;;;;;;;;;;20.50;44.60;;;;;;474687;251;1065;-48
2021/11/05 03:23:10;;;;;;;;;;;20.50;44.70;;;;;;474355;251;1259;-47
2021/11/05 03:25:12;;;;;;;;;;;20.50;44.70;;;;;;474253;251;1138;-47
2021/11/05 03:27:13;;;;;;;;;;;20.50;44.70;;;;;;474633;251;996;-47
2021/11/05 03:29:14;;;;;;;;;;;20.50;44.70;;;;;;474274;251;1162;-47
2021/11/05 03:31:16;;;;;;;;;;;20.40;44.80;;;;;;474570;251;1265;-47
2021/11/05 03:33:17;;;;;;;;;;;20.40;44.80;;;;;;474392;251;2265;-47
2021/11/05 03:35:18;;;;;;;;;;;20.40;44.90;;;;;;474644;251;1028;-47
2021/11/05 03:37:20;;;;;;;;;;;20.40;44.90;;;;;;474315;251;1281;-47
2021/11/05 03:39:21;;;;;;;;;;;20.40;44.80;;;;;;474302;251;1102;-47
2021/11/05 03:41:22;;;;;;;;;;;20.40;44.80;;;;;;474537;251;1429;-47
2021/11/05 03:43:24;;;;;;;;;;;20.40;44.80;;;;;;474677;251;1179;-47
2021/11/05 03:45:25;;;;;;;;;;;20.40;45.00;;;;;;474692;251;1088;-47
2021/11/05 03:47:26;;;;;;;;;;;20.40;45.00;;;;;;474249;251;1207;-47
2021/11/05 03:49:29;;;;;;;;;;;20.40;44.90;;;;;;474242;251;1074;-47
2021/11/05 03:51:30;;;;;;;;;;;20.40;45.00;;;;;;474197;251;1970;-47
2021/11/05 03:53:31;;;;;;;;;;;20.30;45.00;;;;;;474406;251;2205;-48
2021/11/05 03:55:32;;;;;;;;;;;20.30;45.00;;;;;;474693;251;1573;-47
2021/11/05 03:57:34;;;;;;;;;;;20.30;45.10;;;;;;474619;251;1292;-47
2021/11/05 03:59:35;;;;;;;;;;;20.30;45.00;;;;;;474680;251;1007;-47
2021/11/05 04:01:36;;;;;;;;;;;20.30;45.00;;;;;;474305;251;1113;-47
2021/11/05 04:03:38;;;;;;;;;;;20.30;45.00;;;;;;474506;251;1234;-48
2021/11/05 04:05:39;;;;;;;;;;;20.20;45.00;;;;;;474434;251;1312;-47
2021/11/05 04:07:40;;;;;;;;;;;20.30;45.10;;;;;;474187;251;1220;-47
2021/11/05 04:09:42;;;;;;;;;;;20.30;45.00;;;;;;474693;251;1011;-47
2021/11/05 04:11:43;;;;;;;;;;;20.30;45.10;;;;;;474254;251;1228;-47
2021/11/05 04:13:44;;;;;;;;;;;20.40;45.00;;;;;;474297;251;2204;-47
2021/11/05 04:15:46;;;;;;;;;;;20.40;45.00;;;;;;474665;251;1324;-47
2021/11/05 04:17:48;;;;;;;;;;;20.40;45.00;;;;;;474304;251;1157;-47
2021/11/05 04:19:48;;;;;;;;;;;20.40;44.90;;;;;;474237;251;2003;-47
2021/11/05 04:21:50;;;;;;;;;;;20.30;44.80;;;;;;474670;251;1241;-48
2021/11/05 04:23:51;;;;;;;;;;;20.40;44.90;;;;;;474289;251;1245;-47
2021/11/05 04:25:52;;;;;;;;;;;20.40;44.70;;;;;;474484;251;1276;-47
2021/11/05 04:27:54;;;;;;;;;;;20.40;44.70;;;;;;474174;251;1246;-47
2021/11/05 04:29:55;;;;;;;;;;;20.40;44.70;;;;;;474293;251;1063;-47
2021/11/05 04:31:57;;;;;;;;;;;20.40;44.70;;;;;;474262;246;1205;-47
2021/11/05 04:33:58;;;;;;;;;;;20.40;44.70;;;;;;474297;251;2197;-47
2021/11/05 04:35:59;;;;;;;;;;;20.40;44.70;;;;;;474672;251;1074;-47
2021/11/05 04:38:01;;;;;;;;;;;20.50;44.70;;;;;;474632;251;1117;-47
2021/11/05 04:40:02;;;;;;;;;;;20.50;44.70;;;;;;474735;251;1062;-47
2021/11/05 04:42:04;;;;;;;;;;;20.50;44.70;;;;;;474657;244;1267;-48
2021/11/05 04:44:05;;;;;;;;;;;20.50;44.70;;;;;;474709;251;1080;-48
2021/11/05 04:46:06;;;;;;;;;;;20.50;44.60;;;;;;474241;251;1045;-47
2021/11/05 04:48:07;;;;;;;;;;;20.40;44.60;;;;;;474472;251;1194;-47
2021/11/05 04:50:09;;;;;;;;;;;20.50;44.60;;;;;;474314;251;1090;-47
2021/11/05 04:52:10;;;;;;;;;;;20.50;44.70;;;;;;474232;251;1337;-47
2021/11/05 04:54:11;;;;;;;;;;;20.50;44.70;;;;;;474197;251;2146;-47
2021/11/05 04:56:13;;;;;;;;;;;20.40;44.70;;;;;;474498;251;1378;-47
2021/11/05 04:58:14;;;;;;;;;;;20.50;44.70;;;;;;474380;251;1039;-47
2021/11/05 05:00:15;;;;;;;;;;;20.40;44.60;;;;;;474235;251;1239;-47
2021/11/05 05:02:18;;;;;;;;;;;20.50;44.70;;;;;;474139;251;1207;-47
2021/11/05 05:04:18;;;;;;;;;;;20.40;44.60;;;;;;474602;251;2457;-48
2021/11/05 05:06:20;;;;;;;;;;;20.50;44.60;;;;;;474406;251;1364;-47
2021/11/05 05:08:21;;;;;;;;;;;20.50;44.70;;;;;;474578;251;1220;-47
2021/11/05 05:10:22;;;;;;;;;;;20.40;44.70;;;;;;474610;251;1115;-47
2021/11/05 05:12:23;;;;;;;;;;;20.40;44.60;;;;;;474252;251;1197;-47
2021/11/05 05:14:25;;;;;;;;;;;20.40;44.60;;;;;;474647;251;2196;-48
2021/11/05 05:16:26;;;;;;;;;;;20.40;44.70;;;;;;474633;251;1108;-47
2021/11/05 05:18:27;;;;;;;;;;;20.40;44.70;;;;;;474692;251;1065;-47
2021/11/05 05:20:29;;;;;;;;;;;20.50;44.70;;;;;;474656;251;1048;-47
2021/11/05 05:22:30;;;;;;;;;;;20.40;44.70;;;;;;474271;251;1207;-47
2021/11/05 05:24:31;;;;;;;;;;;20.40;44.80;;;;;;474117;251;1233;-47
2021/11/05 05:26:33;;;;;;;;;;;20.40;44.80;;;;;;474170;251;1102;-47
2021/11/05 05:28:34;;;;;;;;;;;20.40;44.90;;;;;;474851;244;1345;-47
2021/11/05 05:30:35;;;;;;;;;;;20.30;44.90;;;;;;474604;251;1081;-47
2021/11/05 05:32:37;;;;;;;;;;;20.30;44.90;;;;;;474221;251;1004;-47
2021/11/05 05:34:38;;;;;;;;;;;20.30;44.90;;;;;;474166;251;2182;-47
2021/11/05 05:36:39;;;;;;;;;;;20.40;44.80;;;;;;474391;251;1082;-47
2021/11/05 05:38:41;;;;;;;;;;;20.40;44.90;;;;;;474199;246;1469;-48
2021/11/05 05:40:42;;;;;;;;;;;20.30;44.90;;;;;;474567;251;1106;-47
2021/11/05 05:42:43;;;;;;;;;;;20.40;44.90;;;;;;474045;251;1039;-47
2021/11/05 05:44:45;;;;;;;;;;;20.40;44.90;;;;;;474409;251;1074;-47
2021/11/05 05:46:46;;;;;;;;;;;20.30;44.80;;;;;;473941;251;1151;-47
2021/11/05 05:48:47;;;;;;;;;;;20.30;44.90;;;;;;473994;251;1063;-47
2021/11/05 05:50:48;;;;;;;;;;;20.30;44.90;;;;;;474106;251;1253;-46
2021/11/05 05:52:50;;;;;;;;;;;20.40;45.00;;;;;;474390;251;1053;-47
2021/11/05 05:54:51;;;;;;;;;;;20.40;44.90;;;;;;474139;251;2202;-47
2021/11/05 05:56:52;;;;;;;;;;;20.40;44.90;;;;;;473955;251;1127;-47
2021/11/05 05:58:54;;;;;;;;;;;20.40;44.90;;;;;;474156;251;1126;-47
2021/11/05 06:00:55;;;;;;;;;;;20.40;44.90;;;;;;474058;251;1008;-47
2021/11/05 06:02:56;;;;;;;;;;;20.40;44.70;;;;;;474131;251;1272;-47
2021/11/05 06:04:58;;;;;;;;;;;20.40;44.70;;;;;;474273;251;1052;-47
2021/11/05 06:06:59;;;;;;;;;;;20.40;44.70;;;;;;474065;251;1228;-47
2021/11/05 06:09:00;;;;;;;;;;;20.40;44.70;;;;;;474319;251;1113;-47
2021/11/05 06:11:03;;;;;;;;;;;20.40;44.60;;;;;;474091;251;1247;-47
2021/11/05 06:13:04;;;;;;;;;;;20.40;44.70;;;;;;474110;251;1202;-47
2021/11/05 06:15:05;;;;;;;;;;;20.40;44.70;;;;;;474225;251;2186;-47
2021/11/05 06:17:06;;;;;;;;;;;20.40;44.60;;;;;;473962;246;1351;-47
2021/11/05 06:19:08;;;;;;;;;;;20.50;44.60;;;;;;474057;251;1037;-47
2021/11/05 06:21:09;;;;;;;;;;;20.50;44.60;;;;;;474025;251;1068;-47
2021/11/05 06:23:10;;;;;;;;;;;20.50;44.50;;;;;;474029;251;1144;-48
2021/11/05 06:25:12;;;;;;;;;;;20.50;44.50;;;;;;473966;251;1253;-47
2021/11/05 06:27:13;;;;;;;;;;;20.50;44.50;;;;;;474037;251;1053;-47
2021/11/05 06:29:14;;;;;;;;;;;20.50;44.50;;;;;;473989;251;1058;-47
2021/11/05 06:31:16;;;;;;;;;;;20.50;44.50;;;;;;474045;251;1132;-47
2021/11/05 06:33:18;;;;;;;;;;;20.50;44.50;;;;;;474119;251;1254;-47
2021/11/05 06:35:19;;;;;;;;;;;20.50;44.50;;;;;;473823;251;2587;-47
2021/11/05 06:37:20;;;;;;;;;;;20.50;44.50;;;;;;473894;251;1212;-47
2021/11/05 06:39:21;;;;;;;;;;;20.50;44.40;;;;;;474082;251;1045;-47
2021/11/05 06:41:23;;;;;;;;;;;20.50;44.30;;;;;;473942;251;1273;-48
2021/11/05 06:43:24;;;;;;;;;;;20.50;44.40;;;;;;474100;251;1256;-47
2021/11/05 06:45:28;;;;;;;;;;;20.50;44.50;;;;;;474040;251;1160;-47
2021/11/05 06:47:27;;;;;;;;;;;20.50;44.40;;;;;;473613;251;2168;-47
2021/11/05 06:49:28;;;;;;;;;;;20.50;44.40;;;;;;473809;251;1170;-48
2021/11/05 06:51:30;;;;;;;;;;;20.50;44.30;;;;;;473833;251;1334;-47
2021/11/05 06:53:31;;;;;;;;;;;20.50;44.30;;;;;;473844;251;1118;-47
2021/11/05 06:55:32;;;;;;;;;;;20.50;44.40;;;;;;474010;251;2126;-47
2021/11/05 06:57:34;;;;;;;;;;;20.50;44.50;;;;;;473685;251;1192;-47
2021/11/05 06:59:35;;;;;;;;;;;20.50;44.40;;;;;;473690;251;1140;-47
2021/11/05 07:01:36;;;;;;;;;;;20.50;44.40;;;;;;473778;251;1259;-47
2021/11/05 07:03:38;;;;;;;;;;;20.50;44.50;;;;;;474015;251;1197;-47
2021/11/05 07:05:39;;;;;;;;;;;20.40;44.60;;;;;;473770;251;1326;-47
2021/11/05 07:07:41;;;;;;;;;;;20.40;44.60;;;;;;473704;251;1156;-47
2021/11/05 07:09:42;;;;;;;;;;;20.40;44.60;;;;;;473826;251;1189;-47
2021/11/05 07:11:43;;;;;;;;;;;20.50;44.60;;;;;;473801;251;1311;-47
2021/11/05 07:13:44;;;;;;;;;;;20.40;44.50;;;;;;473922;251;1075;-47
2021/11/05 07:15:47;;;;;;;;;;;20.40;44.60;;;;;;473830;251;2186;-47
2021/11/05 07:17:47;;;;;;;;;;;20.40;44.60;;;;;;473819;251;1343;-47
2021/11/05 07:19:49;;;;;;;;;;;20.30;44.50;;;;;;473835;251;1075;-47
2021/11/05 07:21:58;;;;;;;;;;;20.40;44.60;;;;;;473691;251;1258;-47
2021/11/05 07:23:51;;;;;;;;;;;20.40;44.60;;;;;;473124;251;2303;-47
2021/11/05 07:25:53;;;;;;;;;;;20.40;44.60;;;;;;473625;251;1445;-47
2021/11/05 07:27:54;;;;;;;;;;;20.30;44.60;;;;;;473703;251;1126;-47
2021/11/05 07:29:56;;;;;;;;;;;20.30;44.50;;;;;;473839;251;1071;-47
2021/11/05 07:31:58;;;;;;;;;;;20.40;44.50;;;;;;473636;251;1275;-47
2021/11/05 07:33:59;;;;;;;;;;;20.40;44.50;;;;;;473722;251;1092;-47
2021/11/05 07:36:00;;;;;;;;;;;20.40;44.50;;;;;;473955;244;2201;-48
2021/11/05 07:38:02;;;;;;;;;;;20.40;44.60;;;;;;473805;251;1128;-47
2021/11/05 07:40:02;;;;;;;;;;;20.40;44.50;;;;;;473754;251;2300;-47
2021/11/05 07:42:04;;;;;;;;;;;20.40;44.40;;;;;;473498;251;1313;-47
2021/11/05 07:44:05;;;;;;;;;;;20.40;44.30;;;;;;473672;251;1073;-47
2021/11/05 07:46:07;;;;;;;;;;;20.40;44.30;;;;;;473463;251;1254;-47
2021/11/05 07:48:08;;;;;;;;;;;20.40;44.30;;;;;;473762;251;1287;-47
2021/11/05 07:50:09;;;;;;;;;;;20.40;44.20;;;;;;473905;251;1109;-47
2021/11/05 07:52:12;;;;;;;;;;;20.50;44.20;;;;;;473682;251;1167;-48
2021/11/05 07:54:12;;;;;;;;;;;20.40;44.20;;;;;;473540;251;1687;-48
2021/11/05 07:56:13;;;;;;;;;;;20.40;44.20;;;;;;473417;244;2126;-47
2021/11/05 07:58:15;;;;;;;;;;;20.50;44.20;;;;;;473711;251;1143;-47
2021/11/05 08:00:16;;;;;;;;;;;20.50;44.00;;;;;;473662;251;1066;-47
2021/11/05 08:02:17;;;;;;;;;;;20.60;44.10;;;;;;473474;251;1311;-47
2021/11/05 08:04:19;;;;;;;;;;;20.50;44.00;;;;;;473490;251;1213;-47
2021/11/05 08:06:20;;;;;;;;;;;20.50;43.90;;;;;;473494;246;1364;-47
2021/11/05 08:08:21;;;;;;;;;;;20.50;44.00;;;;;;473454;251;1365;-47
2021/11/05 08:10:23;;;;;;;;;;;20.50;43.90;;;;;;473621;251;1113;-47
2021/11/05 08:12:24;;;;;;;;;;;20.50;43.90;;;;;;473316;251;1309;-47
2021/11/05 08:14:25;;;;;;;;;;;20.60;43.90;;;;;;473296;251;1110;-47
2021/11/05 08:16:27;;;;;;;;;;;20.60;43.90;;;;;;473216;251;2173;-47
2021/11/05 08:18:28;;;;;;;;;;;20.60;43.90;;;;;;473292;251;1234;-47
2021/11/05 08:20:29;;;;;;;;;;;20.60;43.80;;;;;;473475;251;1104;-47
2021/11/05 08:22:31;;;;;;;;;;;20.60;43.80;;;;;;473292;251;1339;-47
2021/11/05 08:24:32;;;;;;;;;;;20.50;43.80;;;;;;473333;251;1127;-47
2021/11/05 08:26:33;;;;;;;;;;;20.50;43.80;;;;;;473395;251;1196;-47
2021/11/05 08:28:37;;;;;;;;;;;20.60;43.80;;;;;;473399;251;1129;-47
2021/11/05 08:30:36;;;;;;;;;;;20.60;43.80;;;;;;473249;251;2127;-47
2021/11/05 08:32:37;;;;;;;;;;;20.60;43.70;;;;;;473392;251;1215;-47
2021/11/05 08:34:39;;;;;;;;;;;20.60;43.80;;;;;;473394;251;1246;-47
2021/11/05 08:36:40;;;;;;;;;;;20.60;43.70;;;;;;473273;251;2404;-47
2021/11/05 08:38:42;;;;;;;;;;;20.60;43.90;;;;;;473439;251;1120;-47
2021/11/05 08:40:43;;;;;;;;;;;20.50;43.80;;;;;;473444;251;1155;-47
2021/11/05 08:42:45;;;;;;;;;;;20.50;43.80;;;;;;473269;251;1247;-47
2021/11/05 08:44:46;;;;;;;;;;;20.60;43.90;;;;;;473357;251;1222;-46
2021/11/05 08:46:47;;;;;;;;;;;20.50;43.90;;;;;;473354;251;1430;-47
2021/11/05 08:48:49;;;;;;;;;;;20.50;43.90;;;;;;473598;251;1265;-47
2021/11/05 08:50:52;;;;;;;;;;;20.50;44.00;;;;;;473401;251;1529;-47
2021/11/05 08:52:53;;;;;;;;;;;20.50;44.10;;;;;;473716;251;2506;-47
2021/11/05 08:54:54;;;;;;;;;;;20.40;44.10;;;;;;473827;251;1075;-47
2021/11/05 08:56:55;;;;;;;;;;;20.50;44.10;;;;;;473968;246;2201;-48
2021/11/05 08:58:56;;;;;;;;;;;20.40;44.10;;;;;;474222;251;1068;-47
2021/11/05 09:00:58;;;;;;;;;;;20.40;44.10;;;;;;474120;251;1246;-47
2021/11/05 09:02:59;;;;;;;;;;;20.40;44.10;;;;;;474142;251;1059;-48
2021/11/05 09:05:01;;;;;;;;;;;20.40;44.20;;;;;;474140;251;1321;-47
2021/11/05 09:07:02;;;;;;;;;;;20.40;44.20;;;;;;473997;251;1192;-47
2021/11/05 09:09:03;;;;;;;;;;;20.40;44.20;;;;;;473525;251;1104;-47
2021/11/05 09:11:04;;;;;;;;;;;20.40;44.20;;;;;;473231;251;1350;-47
2021/11/05 09:13:08;;;;;;;;;;;20.40;44.10;;;;;;474023;244;1257;-47
2021/11/05 09:15:07;;;;;;;;;;;20.40;44.10;;;;;;473975;251;2114;-47
2021/11/05 09:17:08;;;;;;;;;;;20.40;44.20;;;;;;474008;251;1653;-47
2021/11/05 09:19:10;;;;;;;;;;;20.40;44.20;;;;;;474150;251;910;-47
2021/11/05 09:21:11;;;;;;;;;;;20.40;44.20;;;;;;474192;251;1151;-47
2021/11/05 09:23:12;;;;;;;;;;;20.40;44.10;;;;;;474121;251;1208;-48
2021/11/05 09:25:14;;;;;;;;;;;20.40;44.10;;;;;;473821;251;887;-47
2021/11/05 09:27:15;;;;;;;;;;;20.40;43.90;;;;;;473643;251;1231;-47
2021/11/05 09:29:18;;;;;;;;;;;20.40;44.00;;;;;;473423;251;1039;-47
2021/11/05 09:31:18;;;;;;;;;;;20.40;43.90;;;;;;473359;251;1977;-47
2021/11/05 09:33:19;;;;;;;;;;;20.40;43.90;;;;;;473415;251;1089;-47
2021/11/05 09:35:20;;;;;;;;;;;20.50;43.80;;;;;;473393;251;2185;-47
2021/11/05 09:37:21;;;;;;;;;;;20.60;43.80;;;;;;473561;251;1192;-47
2021/11/05 09:39:23;;;;;;;;;;;20.50;43.80;;;;;;473407;251;1224;-47
2021/11/05 09:41:24;;;;;;;;;;;20.50;43.70;;;;;;473463;251;1373;-47
2021/11/05 09:43:25;;;;;;;;;;;20.50;43.70;;;;;;473276;251;1310;-47
2021/11/05 09:45:31;;;;;;;;;;;20.50;43.70;;;;;;473352;251;1297;-47
2021/11/05 09:47:28;;;;;;;;;;;20.50;43.70;;;;;;473096;251;2154;-47
2021/11/05 09:49:30;;;;;;;;;;;20.50;43.70;;;;;;473365;251;1066;-47
2021/11/05 09:51:31;;;;;;;;;;;20.40;43.60;;;;;;473299;251;1201;-48
2021/11/05 09:53:36;;;;;;;;;;;20.50;43.70;;;;;;473280;251;1079;-47
2021/11/05 09:55:34;;;;;;;;;;;20.50;43.60;;;;;;473000;251;2202;-48
2021/11/05 09:57:35;;;;;;;;;;;20.50;43.50;;;;;;473099;251;1184;-47
2021/11/05 09:59:37;;;;;;;;;;;20.50;43.60;;;;;;473234;251;1063;-47
2021/11/05 10:01:38;;;;;;;;;;;20.50;43.60;;;;;;473050;251;1599;-47
2021/11/05 10:03:39;;;;;;;;;;;20.50;43.50;;;;;;473333;251;1076;-47
2021/11/05 10:05:40;;;;;;;;;;;20.50;43.50;;;;;;473294;251;1310;-47
2021/11/05 10:07:42;;;;;;;;;;;20.50;43.50;;;;;;472977;251;1232;-47
2021/11/05 10:09:43;;;;;;;;;;;20.50;43.40;;;;;;473176;251;1244;-47
2021/11/05 10:11:44;;;;;;;;;;;20.50;43.40;;;;;;473196;251;1652;-47
2021/11/05 10:13:46;;;;;;;;;;;20.50;43.40;;;;;;473820;251;1198;-47
2021/11/05 10:15:47;;;;;;;;;;;20.50;43.30;;;;;;474100;251;2193;-48
2021/11/05 10:17:48;;;;;;;;;;;20.50;43.30;;;;;;473985;251;1099;-47
2021/11/05 10:19:49;;;;;;;;;;;20.50;43.30;;;;;;473321;251;1106;-47
2021/11/05 10:21:51;;;;;;;;;;;20.50;43.40;;;;;;473167;251;1356;-47
2021/11/05 10:23:52;;;;;;;;;;;20.50;43.50;;;;;;474062;251;921;-47
2021/11/05 10:25:53;;;;;;;;;;;20.50;43.50;;;;;;473990;251;1088;-47
2021/11/05 10:27:55;;;;;;;;;;;20.40;43.50;;;;;;473583;251;1385;-47
2021/11/05 10:29:56;;;;;;;;;;;20.40;43.40;;;;;;473988;251;1134;-47
2021/11/05 10:31:57;;;;;;;;;;;20.40;43.50;;;;;;473343;251;1141;-47
2021/11/05 10:33:59;;;;;;;;;;;20.40;43.50;;;;;;473359;251;1247;-47
2021/11/05 10:36:00;;;;;;;;;;;20.40;43.50;;;;;;473189;251;2197;-47
2021/11/05 10:38:03;;;;;;;;;;;20.40;43.60;;;;;;474129;251;1043;-47
2021/11/05 10:40:03;;;;;;;;;;;20.40;43.60;;;;;;473294;251;1962;-47
2021/11/05 10:42:04;;;;;;;;;;;20.40;43.50;;;;;;473265;251;1386;-47
2021/11/05 10:44:05;;;;;;;;;;;20.40;43.50;;;;;;473539;251;1325;-47
2021/11/05 10:46:07;;;;;;;;;;;20.40;43.60;;;;;;473523;251;1248;-47
2021/11/05 10:48:09;;;;;;;;;;;20.40;43.50;;;;;;473195;251;1306;-47
2021/11/05 10:50:09;;;;;;;;;;;20.40;43.50;;;;;;473167;251;1288;-47
2021/11/05 10:52:11;;;;;;;;;;;20.30;43.50;;;;;;473014;251;1217;-47
2021/11/05 10:54:12;;;;;;;;;;;20.40;43.60;;;;;;473253;251;1087;-47
2021/11/05 10:56:14;;;;;;;;;;;20.40;43.50;;;;;;473057;244;2189;-47
2021/11/05 10:58:15;;;;;;;;;;;20.40;43.50;;;;;;473283;251;1380;-47
2021/11/05 11:00:16;;;;;;;;;;;20.40;43.50;;;;;;473231;251;1112;-47
2021/11/05 11:02:18;;;;;;;;;;;20.30;43.50;;;;;;473560;251;1198;-47
2021/11/05 11:04:22;;;;;;;;;;;20.30;43.40;;;;;;473423;251;1086;-47
2021/11/05 11:06:20;;;;;;;;;;;20.40;43.50;;;;;;473190;251;2201;-47
2021/11/05 11:08:21;;;;;;;;;;;20.30;43.40;;;;;;474116;251;1053;-48
2021/11/05 11:10:23;;;;;;;;;;;20.30;43.30;;;;;;474074;251;1315;-47
2021/11/05 11:12:24;;;;;;;;;;;20.40;43.30;;;;;;474233;251;1331;-47
2021/11/05 11:14:25;;;;;;;;;;;20.40;43.30;;;;;;473401;251;1230;-48
2021/11/05 11:16:27;;;;;;;;;;;20.40;43.20;;;;;;473508;251;2197;-47
2021/11/05 11:18:28;;;;;;;;;;;20.40;43.20;;;;;;473415;251;1173;-47
2021/11/05 11:20:30;;;;;;;;;;;20.40;43.10;;;;;;473258;251;1324;-48
2021/11/05 11:22:31;;;;;;;;;;;20.50;43.20;;;;;;473158;251;1223;-47
2021/11/05 11:24:33;;;;;;;;;;;20.50;43.20;;;;;;473294;251;1081;-47
2021/11/05 11:26:34;;;;;;;;;;;20.50;43.10;;;;;;473239;251;1262;-47
2021/11/05 11:28:35;;;;;;;;;;;20.40;43.00;;;;;;473463;251;1161;-47
2021/11/05 11:30:37;;;;;;;;;;;20.50;43.00;;;;;;473382;251;1106;-47
2021/11/05 11:32:38;;;;;;;;;;;20.40;43.00;;;;;;473507;251;1264;-47
2021/11/05 11:34:39;;;;;;;;;;;20.50;43.10;;;;;;473544;251;1092;-47
2021/11/05 11:36:41;;;;;;;;;;;20.50;43.00;;;;;;473429;251;2212;-47
2021/11/05 11:38:42;;;;;;;;;;;20.50;43.00;;;;;;473359;251;1228;-48
2021/11/05 11:40:43;;;;;;;;;;;20.50;43.00;;;;;;473297;251;1093;-47
2021/11/05 11:42:45;;;;;;;;;;;20.50;42.90;;;;;;473496;251;1071;-47
2021/11/05 11:44:46;;;;;;;;;;;20.50;42.90;;;;;;473418;251;1167;-47
2021/11/05 11:46:47;;;;;;;;;;;20.50;42.90;;;;;;473438;251;1109;-47
2021/11/05 11:48:49;;;;;;;;;;;20.50;42.90;;;;;;473505;251;1075;-47
2021/11/05 11:50:50;;;;;;;;;;;20.50;42.90;;;;;;473464;251;1349;-47
2021/11/05 11:52:51;;;;;;;;;;;20.50;43.00;;;;;;474146;251;1080;-47
2021/11/05 11:54:52;;;;;;;;;;;20.50;42.90;;;;;;473779;251;879;-47
2021/11/05 11:56:55;;;;;;;;;;;20.50;42.90;;;;;;473945;251;2192;-47